Time;durP1;ratioP1;P1;durP2;ratioP2;P2;SDS_P1;SDS_P2;PMS_P1;PMS_P2;Temp;Humidity;BMP_temperature;BMP_pressure;BME280_temperature;BME280_humidity;BME280_pressure;Samples;Min_cycle;Max_cycle;Signal;HPM_P1;HPM_P2
2022/12/24 00:01:13;;;;;;;;;1.67;1.67;;;;;15.70;69.58;100717.53;5044682;28;45540;-84
2022/12/24 00:03:38;;;;;;;;;1.00;1.00;;;;;15.60;69.33;100720.06;5040857;28;45427;-77
2022/12/24 00:06:12;;;;;;;;;1.67;0.33;;;;;15.50;70.25;100713.78;5036394;28;45471;-83
2022/12/24 00:08:40;;;;;;;;;1.33;1.33;;;;;15.40;69.59;100703.97;5040529;28;45864;-81
2022/12/24 00:11:05;;;;;;;;;0.00;0.00;;;;;15.39;70.19;100707.50;5040981;28;45542;-71
2022/12/24 00:13:31;;;;;;;;;2.00;1.67;;;;;15.32;70.43;100715.31;5040489;28;45970;-84
2022/12/24 00:15:56;;;;;;;;;2.00;0.00;;;;;15.38;70.09;100708.34;5039794;28;45455;-82
2022/12/24 00:18:22;;;;;;;;;2.00;1.00;;;;;15.36;70.30;100713.63;5051477;28;45519;-81
2022/12/24 00:20:48;;;;;;;;;2.00;1.00;;;;;15.38;70.45;100713.59;5050686;28;45446;-84
2022/12/24 00:23:16;;;;;;;;;1.67;1.00;;;;;15.39;70.29;100710.13;5049405;28;46308;-76
2022/12/24 00:25:42;;;;;;;;;1.00;1.00;;;;;15.36;70.44;100699.53;5048319;28;45562;-68
2022/12/24 00:28:08;;;;;;;;;1.00;1.00;;;;;15.40;70.08;100707.53;5040210;28;45513;-81
2022/12/24 00:30:33;;;;;;;;;1.67;1.00;;;;;15.39;70.35;100707.50;5036825;28;45509;-79
2022/12/24 00:32:59;;;;;;;;;3.67;1.33;;;;;15.35;70.58;100695.16;5038801;28;45971;-79
2022/12/24 00:35:24;;;;;;;;;2.00;1.00;;;;;15.23;70.98;100677.47;5045077;28;45349;-78
2022/12/24 00:37:50;;;;;;;;;1.00;1.00;;;;;15.16;71.26;100688.75;5037794;28;45416;-85
2022/12/24 00:40:17;;;;;;;;;1.67;1.33;;;;;15.07;71.67;100685.16;5036535;28;45366;-85
2022/12/24 00:42:42;;;;;;;;;1.00;1.00;;;;;14.95;71.49;100676.22;5044506;28;46020;-85
2022/12/24 00:45:09;;;;;;;;;2.00;2.00;;;;;14.87;71.89;100684.88;5045624;28;45283;-85
2022/12/24 00:47:35;;;;;;;;;8.00;8.00;;;;;14.79;71.83;100689.13;5045728;28;45471;-84
2022/12/24 00:50:01;;;;;;;;;5.00;5.00;;;;;14.74;72.03;100688.16;5040371;28;45423;-85
2022/12/24 00:52:26;;;;;;;;;2.33;2.00;;;;;14.57;72.02;100664.25;5043510;28;45410;-84
2022/12/24 00:54:52;;;;;;;;;3.33;2.00;;;;;14.39;72.14;100637.66;5045991;28;45399;-84
2022/12/24 00:57:18;;;;;;;;;7.00;6.00;;;;;14.55;72.14;100668.56;5042308;28;45332;-84
2022/12/24 00:59:43;;;;;;;;;3.00;2.00;;;;;14.41;72.06;100644.69;5043080;28;45252;-78
2022/12/24 01:02:09;;;;;;;;;0.67;0.00;;;;;14.43;71.98;100666.63;5042407;28;46013;-72
2022/12/24 01:07:18;;;;;;;;;1.00;1.00;;;;;14.30;72.67;100649.78;5055428;28;45522;-84
2022/12/24 01:09:44;;;;;;;;;4.00;2.33;;;;;14.24;72.72;100654.03;5049391;28;45502;-80
2022/12/24 01:12:09;;;;;;;;;9.50;7.25;;;;;14.11;72.72;100647.72;5060712;28;45959;-67
2022/12/24 01:14:36;;;;;;;;;4.00;4.00;;;;;14.01;72.86;100636.16;5070517;28;44765;-82
2022/12/24 01:17:02;;;;;;;;;4.33;1.00;;;;;13.90;72.68;100641.19;5048024;28;45352;-84
2022/12/24 01:19:28;;;;;;;;;0.33;0.00;;;;;13.87;72.69;100633.28;5056742;28;45335;-83
2022/12/24 01:21:54;;;;;;;;;1.00;1.00;;;;;13.78;73.35;100629.59;5053114;28;45563;-79
2022/12/24 01:24:19;;;;;;;;;1.00;1.00;;;;;13.71;73.50;100637.38;5050150;28;45485;-68
2022/12/24 01:26:44;;;;;;;;;1.33;1.00;;;;;13.68;73.61;100634.66;5058317;28;45429;-67
2022/12/24 01:29:10;;;;;;;;;2.67;2.00;;;;;13.50;73.04;100598.47;5050411;28;45391;-68
2022/12/24 01:31:36;;;;;;;;;2.00;1.00;;;;;13.62;73.22;100637.19;5057932;28;46018;-68
2022/12/24 01:34:01;;;;;;;;;2.00;1.00;;;;;13.55;73.49;100634.41;5050158;28;45347;-68
2022/12/24 01:36:27;;;;;;;;;3.00;2.67;;;;;13.52;73.32;100645.75;5053010;28;45318;-84
2022/12/24 01:38:52;;;;;;;;;2.67;1.00;;;;;13.47;73.46;100644.78;5054203;28;45521;-82
2022/12/24 01:44:31;;;;;;;;;3.33;2.00;;;;;13.33;73.57;100644.50;5054198;28;45493;-69
2022/12/24 01:47:02;;;;;;;;;3.25;3.00;;;;;13.27;73.46;100645.22;5055758;28;45547;-85
2022/12/24 01:49:28;;;;;;;;;3.00;2.00;;;;;13.24;74.04;100645.16;5051894;28;45432;-85
2022/12/24 01:51:59;;;;;;;;;3.00;2.00;;;;;13.18;74.02;100647.66;5047895;28;46076;-86
2022/12/24 01:54:33;;;;;;;;;1.33;0.33;;;;;13.00;73.68;100624.53;5055779;28;45919;-68
2022/12/24 01:57:10;;;;;;;;;3.00;2.33;;;;;13.08;74.61;100637.81;5048887;28;45459;-84
2022/12/24 01:59:38;;;;;;;;;1.67;0.67;;;;;13.07;74.19;100647.44;5055601;28;45535;-83
2022/12/24 02:02:04;;;;;;;;;2.00;1.00;;;;;13.04;73.25;100639.50;5051728;28;45458;-85
2022/12/24 02:04:46;;;;;;;;;2.00;2.00;;;;;13.02;72.98;100637.69;5048544;28;45390;-67
2022/12/24 02:07:11;;;;;;;;;0.00;0.00;;;;;12.70;72.79;100593.31;5049831;28;45386;-67
2022/12/24 02:09:38;;;;;;;;;1.67;1.00;;;;;12.93;73.39;100641.91;5047967;28;45510;-79
2022/12/24 02:12:05;;;;;;;;;1.00;0.33;;;;;12.88;73.75;100630.41;5047154;28;45336;-70
2022/12/24 02:14:31;;;;;;;;;1.50;1.00;;;;;12.88;74.21;100625.16;5057602;28;45478;-85
2022/12/24 02:17:15;;;;;;;;;0.00;0.00;;;;;12.85;74.11;100621.59;5038982;28;45484;-84
2022/12/24 02:20:05;;;;;;;;;1.00;1.00;;;;;12.80;74.65;100618.88;5040015;28;45540;-85
2022/12/24 02:22:39;;;;;;;;;2.00;1.67;;;;;12.74;74.60;100611.75;5048007;28;45759;-84
2022/12/24 02:25:30;;;;;;;;;3.67;2.00;;;;;12.68;74.05;100609.00;5045865;28;45353;-85
2022/12/24 02:28:05;;;;;;;;;2.00;1.33;;;;;12.60;74.23;100613.19;5037887;28;45707;-85
2022/12/24 02:30:54;;;;;;;;;2.33;1.67;;;;;12.50;74.54;100601.59;5056760;28;45414;-73
2022/12/24 02:33:30;;;;;;;;;2.00;2.00;;;;;12.49;74.22;100605.09;5052575;28;45498;-85
2022/12/24 02:36:12;;;;;;;;;1.00;1.00;;;;;12.45;74.59;100603.22;5047669;28;45477;-86
2022/12/24 02:38:51;;;;;;;;;3.00;2.00;;;;;12.41;74.71;100595.25;5052329;28;45567;-84
2022/12/24 02:42:04;;;;;;;;;1.00;1.00;;;;;12.36;74.62;100592.56;5057200;28;45572;-84
2022/12/24 02:44:20;;;;;;;;;2.00;1.00;;;;;12.30;74.23;100592.41;5052944;28;46068;-84
2022/12/24 02:46:46;;;;;;;;;0.75;0.75;;;;;12.26;74.35;100580.97;5048235;28;45264;-84
2022/12/24 02:49:13;;;;;;;;;1.50;1.50;;;;;12.22;74.75;100583.50;5052617;28;45441;-82
2022/12/24 02:51:38;;;;;;;;;0.00;0.00;;;;;12.23;74.30;100575.63;5049861;28;45390;-86
2022/12/24 02:54:05;;;;;;;;;1.67;1.00;;;;;12.24;73.64;100571.31;5052235;28;45427;-72
2022/12/24 02:57:13;;;;;;;;;1.00;1.00;;;;;12.27;72.67;100567.00;5057885;28;45510;-83
2022/12/24 03:00:11;;;;;;;;;2.00;2.00;;;;;12.46;69.68;100570.94;5016769;28;45225;-67
2022/12/24 03:03:10;;;;;;;;;1.00;1.00;;;;;12.63;68.22;100560.81;5032520;28;45466;-86
2022/12/24 03:05:46;;;;;;;;;1.00;1.00;;;;;12.85;66.45;100559.56;5053484;28;45370;-83
2022/12/24 03:08:18;;;;;;;;;1.00;1.00;;;;;12.98;66.26;100551.94;5047882;28;45555;-67
2022/12/24 03:11:05;;;;;;;;;2.33;2.00;;;;;12.93;65.89;100521.28;5054698;28;45628;-78
2022/12/24 03:13:31;;;;;;;;;3.25;2.00;;;;;13.19;64.95;100538.34;5050992;28;45461;-84
2022/12/24 03:15:56;;;;;;;;;2.00;2.00;;;;;13.32;64.14;100537.78;5048078;28;45399;-85
2022/12/24 03:18:25;;;;;;;;;3.00;2.00;;;;;13.41;62.96;100529.19;5060091;28;45508;-85
2022/12/24 03:21:13;;;;;;;;;3.33;2.00;;;;;13.44;63.65;100521.38;5056611;28;45292;-79
2022/12/24 03:23:39;;;;;;;;;2.00;2.00;;;;;13.45;63.37;100518.78;5057671;28;45425;-72
2022/12/24 03:26:08;;;;;;;;;2.00;1.00;;;;;13.27;63.09;100479.03;5057106;28;46195;-85
2022/12/24 03:28:36;;;;;;;;;1.67;1.00;;;;;13.39;63.07;100494.16;5055877;28;45696;-85
2022/12/24 03:31:06;;;;;;;;;2.00;1.00;;;;;13.32;63.14;100478.31;5057589;28;45584;-85
2022/12/24 03:33:32;;;;;;;;;2.33;1.00;;;;;13.50;62.69;100505.75;5056815;28;45845;-84
2022/12/24 03:35:58;;;;;;;;;1.00;1.00;;;;;13.48;62.89;100508.31;5057143;28;45961;-85
2022/12/24 03:38:23;;;;;;;;;2.33;2.00;;;;;13.47;62.86;100508.31;5057033;28;45465;-86
2022/12/24 03:40:49;;;;;;;;;3.33;2.00;;;;;13.33;62.84;100476.59;5057166;28;45253;-67
2022/12/24 03:43:14;;;;;;;;;1.67;1.67;;;;;13.43;62.92;100498.59;5057669;28;45248;-76
2022/12/24 03:45:40;;;;;;;;;1.00;1.00;;;;;13.33;62.93;100485.34;5057735;28;45598;-85
2022/12/24 03:48:05;;;;;;;;;0.33;0.33;;;;;13.35;63.04;100490.63;5055755;28;45333;-85
2022/12/24 03:50:31;;;;;;;;;2.00;1.33;;;;;13.44;62.45;100496.00;5056455;28;45372;-84
2022/12/24 03:52:56;;;;;;;;;1.67;1.00;;;;;13.48;62.28;100491.72;5055874;28;45494;-85
2022/12/24 03:55:23;;;;;;;;;1.00;1.00;;;;;13.43;61.48;100459.25;5055937;28;45725;-85
2022/12/24 03:57:48;;;;;;;;;3.00;2.00;;;;;13.62;61.21;100474.44;5056134;28;45649;-85
2022/12/24 04:00:14;;;;;;;;;1.33;1.33;;;;;13.61;61.03;100462.19;5055127;28;45485;-85
2022/12/24 04:02:40;;;;;;;;;1.00;1.00;;;;;13.38;61.04;100421.56;5057610;28;45471;-85
2022/12/24 04:05:07;;;;;;;;;1.00;0.67;;;;;13.60;61.26;100456.91;5056355;28;45509;-85
2022/12/24 04:07:33;;;;;;;;;2.00;2.00;;;;;13.59;60.71;100456.03;5056959;28;45307;-83
2022/12/24 04:09:58;;;;;;;;;1.00;0.67;;;;;13.49;60.80;100441.88;5056575;28;45579;-82
2022/12/24 04:12:24;;;;;;;;;2.00;2.00;;;;;13.47;61.99;100447.97;5056699;28;45517;-84
2022/12/24 04:14:50;;;;;;;;;1.00;1.00;;;;;13.32;62.38;100454.69;5056191;28;45353;-84
2022/12/24 04:17:16;;;;;;;;;2.00;2.00;;;;;13.23;62.71;100451.91;5057115;28;45324;-85
2022/12/24 04:19:41;;;;;;;;;1.00;1.00;;;;;13.09;63.52;100450.75;5060467;28;45277;-85
2022/12/24 04:22:07;;;;;;;;;2.00;2.00;;;;;13.00;63.33;100450.59;5059482;28;45469;-85
2022/12/24 04:24:32;;;;;;;;;5.00;4.00;;;;;12.77;63.36;100413.44;5059101;28;45495;-82
2022/12/24 04:26:58;;;;;;;;;4.00;3.25;;;;;12.93;63.66;100447.88;5059458;28;45732;-86
2022/12/24 04:29:23;;;;;;;;;2.67;2.67;;;;;12.87;63.68;100447.75;5060556;28;45526;-86
2022/12/24 04:31:49;;;;;;;;;1.00;1.00;;;;;12.83;63.53;100443.31;5060196;28;45521;-79
2022/12/24 04:34:14;;;;;;;;;2.00;2.00;;;;;11.97;63.75;100302.75;5060219;28;45854;-67
2022/12/24 04:36:40;;;;;;;;;1.33;1.00;;;;;12.75;64.12;100444.88;5059137;28;45671;-82
2022/12/24 04:39:06;;;;;;;;;1.00;1.00;;;;;12.66;64.13;100439.47;5059345;28;45505;-86
2022/12/24 04:41:31;;;;;;;;;2.33;2.33;;;;;12.62;64.25;100432.41;5059825;28;45746;-86
2022/12/24 04:43:57;;;;;;;;;4.25;4.00;;;;;12.65;63.91;100442.94;5059096;28;45493;-86
2022/12/24 04:46:29;;;;;;;;;2.00;2.00;;;;;12.84;61.94;100434.56;5059203;28;45533;-85
2022/12/24 04:48:55;;;;;;;;;2.33;1.33;;;;;12.81;64.01;100439.78;5059210;28;45502;-85
2022/12/24 04:51:22;;;;;;;;;2.00;1.00;;;;;12.72;63.57;100413.38;5058370;28;45348;-85
2022/12/24 04:53:47;;;;;;;;;2.00;2.00;;;;;12.93;61.64;100425.97;5058920;28;46137;-84
2022/12/24 04:56:14;;;;;;;;;1.50;1.50;;;;;12.98;62.49;100428.72;5059044;28;45423;-78
2022/12/24 04:58:40;;;;;;;;;1.00;1.00;;;;;12.67;62.48;100405.44;5058873;28;45474;-85
2022/12/24 05:01:09;;;;;;;;;1.33;1.33;;;;;12.83;63.22;100432.81;5043650;28;45875;-86
2022/12/24 05:03:35;;;;;;;;;1.00;1.00;;;;;12.80;63.23;100427.50;5072970;28;45393;-85
2022/12/24 05:06:05;;;;;;;;;0.00;0.00;;;;;12.70;62.97;100408.09;5058524;28;45455;-86
2022/12/24 05:08:30;;;;;;;;;1.33;1.00;;;;;12.79;63.06;100410.00;5054203;28;45338;-85
2022/12/24 05:10:57;;;;;;;;;3.00;2.00;;;;;12.75;63.23;100434.38;5042602;28;45276;-85
2022/12/24 05:13:23;;;;;;;;;2.00;1.67;;;;;12.80;62.31;100416.16;5039582;28;45411;-86
2022/12/24 05:15:49;;;;;;;;;1.00;1.00;;;;;12.95;61.36;100421.66;5049765;28;45477;-82
2022/12/24 05:18:14;;;;;;;;;1.00;0.00;;;;;13.09;60.06;100408.78;5060584;28;45757;-84
2022/12/24 05:20:40;;;;;;;;;4.00;3.67;;;;;13.23;59.50;100409.94;5058813;28;45548;-84
2022/12/24 05:28:34;;;;;;;;;1.00;1.00;;;;;13.67;56.85;100398.41;5058919;28;45468;-85
2022/12/24 05:30:59;;;;;;;;;1.00;1.00;;;;;13.77;57.09;100396.78;5059011;28;45461;-85
2022/12/24 05:33:25;;;;;;;;;2.00;0.00;;;;;13.89;56.87;100400.47;5057936;28;45576;-85
2022/12/24 05:35:53;;;;;;;;;0.00;0.00;;;;;14.02;55.82;100406.78;5052940;28;45494;-78
2022/12/24 05:38:19;;;;;;;;;1.00;0.00;;;;;14.13;55.06;100391.16;5047930;28;45520;-67
2022/12/24 05:40:45;;;;;;;;;1.33;1.00;;;;;14.24;55.11;100401.81;5058963;28;45518;-85
2022/12/24 05:43:11;;;;;;;;;1.00;1.00;;;;;14.24;53.88;100354.50;5058143;28;45609;-86
2022/12/24 05:45:36;;;;;;;;;0.00;0.00;;;;;14.57;52.87;100388.22;5057989;28;45551;-85
2022/12/24 05:48:02;;;;;;;;;1.00;1.00;;;;;14.71;53.02;100383.13;5058642;28;45458;-85
2022/12/24 05:50:28;;;;;;;;;1.00;1.00;;;;;14.65;52.98;100357.63;5058308;28;45576;-85
2022/12/24 05:52:53;;;;;;;;;1.00;1.00;;;;;14.85;52.43;100364.84;5058047;28;46560;-85
2022/12/24 05:55:19;;;;;;;;;0.67;0.67;;;;;14.95;52.14;100368.44;5058180;28;45745;-86
2022/12/24 05:57:44;;;;;;;;;0.33;0.33;;;;;14.98;52.08;100376.34;5041293;28;45344;-85
2022/12/24 06:00:10;;;;;;;;;2.00;1.00;;;;;15.03;51.73;100364.13;5058180;28;45432;-78
2022/12/24 06:02:35;;;;;;;;;1.00;1.00;;;;;15.07;51.87;100371.19;5058450;28;46220;-85
2022/12/24 06:05:01;;;;;;;;;1.00;1.00;;;;;15.02;52.16;100372.88;5058082;28;45477;-84
2022/12/24 06:07:26;;;;;;;;;1.00;0.67;;;;;14.99;51.97;100367.63;5057266;28;45988;-67
2022/12/24 06:09:52;;;;;;;;;2.00;1.00;;;;;14.94;52.59;100367.56;5057605;28;45298;-71
2022/12/24 06:12:17;;;;;;;;;1.00;1.00;;;;;14.91;52.56;100365.78;5056038;28;45276;-85
2022/12/24 06:14:43;;;;;;;;;1.00;1.00;;;;;14.89;52.06;100345.59;5057677;28;45343;-83
2022/12/24 06:17:09;;;;;;;;;0.33;0.33;;;;;14.98;51.84;100350.06;5044577;28;46460;-84
2022/12/24 06:19:34;;;;;;;;;1.00;0.33;;;;;14.96;52.13;100357.94;5057201;28;45595;-80
2022/12/24 06:22:00;;;;;;;;;0.67;0.67;;;;;14.80;52.32;100324.47;5056331;28;46032;-82
2022/12/24 06:24:25;;;;;;;;;1.00;1.00;;;;;14.89;52.71;100345.59;5055463;28;45726;-86
2022/12/24 06:26:51;;;;;;;;;1.00;1.00;;;;;14.87;52.42;100348.22;5055671;28;45482;-69
2022/12/24 06:29:16;;;;;;;;;1.00;1.00;;;;;14.82;52.26;100347.31;5056415;28;45354;-84
2022/12/24 06:31:42;;;;;;;;;1.00;1.00;;;;;14.75;52.73;100341.97;5055011;28;46178;-81
2022/12/24 06:34:07;;;;;;;;;1.00;1.00;;;;;14.71;52.79;100352.44;5053054;28;45453;-84
2022/12/24 06:36:33;;;;;;;;;1.00;1.00;;;;;14.53;53.06;100324.19;5055815;28;45243;-82
2022/12/24 06:38:58;;;;;;;;;0.00;0.00;;;;;14.58;53.39;100339.16;5056509;28;45659;-83
2022/12/24 06:41:24;;;;;;;;;0.00;0.00;;;;;14.66;53.02;100342.75;5055231;28;45542;-83
2022/12/24 06:43:51;;;;;;;;;1.00;1.00;;;;;14.65;53.32;100346.25;5055218;28;45511;-85
2022/12/24 06:46:18;;;;;;;;;1.00;1.00;;;;;14.62;53.07;100344.47;5056882;28;45720;-85
2022/12/24 06:48:44;;;;;;;;;1.67;1.00;;;;;14.36;53.27;100295.97;5055758;28;45362;-82
2022/12/24 06:51:11;;;;;;;;;1.00;1.00;;;;;14.55;53.25;100326.84;5057638;28;46870;-84
2022/12/24 06:53:37;;;;;;;;;1.00;1.00;;;;;14.58;53.26;100341.78;5056613;28;45501;-85
2022/12/24 06:56:05;;;;;;;;;2.00;1.00;;;;;14.36;53.10;100296.84;5057906;28;45546;-80
2022/12/24 06:58:30;;;;;;;;;1.67;1.00;;;;;14.57;53.17;100335.66;5057009;28;45613;-85
2022/12/24 07:00:56;;;;;;;;;1.00;1.00;;;;;14.55;53.19;100329.47;5056712;28;45862;-83
2022/12/24 07:03:22;;;;;;;;;1.00;1.00;;;;;14.54;53.13;100327.69;5055314;28;45383;-81
2022/12/24 07:05:47;;;;;;;;;1.00;1.00;;;;;14.52;52.54;100332.94;5055554;28;45407;-83
2022/12/24 07:08:13;;;;;;;;;1.00;0.00;;;;;14.55;53.21;100331.22;5052245;28;45459;-84
2022/12/24 07:10:38;;;;;;;;;0.00;0.00;;;;;14.54;52.79;100338.19;5051747;28;45745;-78
2022/12/24 07:13:04;;;;;;;;;0.00;0.00;;;;;14.54;52.93;100332.94;5054864;28;45654;-80
2022/12/24 07:15:29;;;;;;;;;3.00;3.00;;;;;14.55;52.70;100320.72;5054734;28;45675;-71
2022/12/24 07:17:55;;;;;;;;;1.67;1.67;;;;;14.56;52.76;100331.25;5055464;28;45577;-67
2022/12/24 07:20:20;;;;;;;;;2.00;2.00;;;;;14.62;52.44;100330.44;5055758;28;45780;-84
2022/12/24 07:22:46;;;;;;;;;1.00;1.00;;;;;14.68;51.94;100328.75;5036899;28;45500;-66
2022/12/24 07:25:11;;;;;;;;;1.00;1.00;;;;;14.65;52.07;100325.22;5054917;28;45485;-66
2022/12/24 07:27:38;;;;;;;;;1.00;1.00;;;;;14.69;51.91;100332.25;5054624;28;45431;-66
2022/12/24 07:30:04;;;;;;;;;2.00;2.00;;;;;14.67;52.21;100331.38;5054743;28;46230;-65
2022/12/24 07:32:29;;;;;;;;;2.00;2.00;;;;;14.62;52.46;100339.22;5052826;28;45540;-84
2022/12/24 07:34:55;;;;;;;;;4.00;3.00;;;;;14.59;52.62;100333.91;5036744;28;45774;-85
2022/12/24 07:37:20;;;;;;;;;2.00;2.00;;;;;14.57;52.46;100337.41;5055563;28;45532;-69
2022/12/24 07:39:46;;;;;;;;;1.00;1.00;;;;;14.46;52.23;100321.47;5055607;28;45636;-71
2022/12/24 07:42:11;;;;;;;;;1.00;1.00;;;;;14.55;52.52;100353.13;5055377;28;45443;-82
2022/12/24 07:44:37;;;;;;;;;2.33;2.00;;;;;14.52;52.70;100343.47;5055702;28;45466;-79
2022/12/24 07:47:02;;;;;;;;;5.00;4.67;;;;;14.51;52.50;100354.84;5055770;28;45347;-68
2022/12/24 07:49:28;;;;;;;;;2.00;2.00;;;;;14.52;52.68;100353.97;5055536;28;45985;-84
2022/12/24 07:51:53;;;;;;;;;1.67;1.00;;;;;14.56;52.03;100351.38;5056209;28;45380;-85
2022/12/24 07:54:19;;;;;;;;;0.67;0.67;;;;;14.52;51.92;100332.94;5056791;28;45351;-82
2022/12/24 07:56:45;;;;;;;;;1.33;1.00;;;;;14.72;51.77;100363.84;5056820;28;45536;-87
2022/12/24 07:59:14;;;;;;;;;2.00;1.00;;;;;14.76;51.89;100370.00;5053680;28;45539;-83
2022/12/24 08:01:40;;;;;;;;;3.00;2.00;;;;;14.84;51.31;100357.81;5055181;28;45477;-83
2022/12/24 08:04:05;;;;;;;;;2.00;2.00;;;;;14.87;51.77;100371.88;5056416;28;45385;-84
2022/12/24 08:06:31;;;;;;;;;5.00;3.33;;;;;14.87;51.71;100361.34;5055879;28;45358;-83
2022/12/24 08:08:56;;;;;;;;;3.33;2.00;;;;;14.93;51.36;100363.16;5056945;28;46025;-83
2022/12/24 08:11:22;;;;;;;;;4.00;4.00;;;;;15.00;51.21;100356.19;5056830;28;45480;-70
2022/12/24 08:13:47;;;;;;;;;6.00;5.33;;;;;15.07;51.49;100360.66;5057501;28;45440;-82
2022/12/24 08:16:13;;;;;;;;;1.00;1.00;;;;;15.14;50.84;100367.75;5056122;28;45548;-79
2022/12/24 08:18:38;;;;;;;;;2.33;2.33;;;;;15.19;51.10;100365.16;5055602;28;46192;-80
2022/12/24 08:21:08;;;;;;;;;1.00;1.00;;;;;15.26;51.13;100361.69;5055806;28;45453;-83
2022/12/24 08:23:34;;;;;;;;;1.33;1.00;;;;;15.30;50.67;100367.00;5056077;28;45351;-81
2022/12/24 08:26:00;;;;;;;;;3.00;3.00;;;;;15.36;50.09;100352.09;5054366;28;45579;-74
2022/12/24 08:28:25;;;;;;;;;18.50;17.00;;;;;15.41;50.36;100358.31;5054332;28;46160;-76
2022/12/24 08:30:51;;;;;;;;;12.00;11.00;;;;;15.47;50.44;100350.44;5054784;28;45375;-73
2022/12/24 08:33:17;;;;;;;;;4.00;4.00;;;;;15.54;50.49;100360.16;5054670;28;45549;-73
2022/12/24 08:35:48;;;;;;;;;4.00;3.00;;;;;15.64;49.82;100354.06;5053926;28;45795;-77
2022/12/24 08:38:13;;;;;;;;;6.00;6.00;;;;;15.57;49.71;100310.13;5056367;28;46190;-78
2022/12/24 08:40:39;;;;;;;;;18.75;17.00;;;;;15.87;49.64;100350.72;5053867;28;45378;-75
2022/12/24 08:43:04;;;;;;;;;14.33;14.33;;;;;15.98;49.21;100350.78;5054477;28;45488;-81
2022/12/24 08:45:30;;;;;;;;;50.75;39.75;;;;;15.93;49.02;100320.88;5054419;28;46112;-81
2022/12/24 08:47:58;;;;;;;;;35.25;30.50;;;;;16.16;48.28;100345.59;5054151;28;45433;-76
2022/12/24 08:50:23;;;;;;;;;32.25;29.75;;;;;16.28;48.95;100352.66;5053674;28;45759;-72
2022/12/24 08:52:49;;;;;;;;;10.00;9.75;;;;;16.40;48.67;100350.06;5055137;28;45450;-73
2022/12/24 08:55:15;;;;;;;;;48.00;36.75;;;;;16.48;47.19;100350.94;5043795;28;45350;-77
2022/12/24 08:57:40;;;;;;;;;10.33;9.00;;;;;16.60;47.88;100343.97;5042188;28;46097;-77
2022/12/24 09:00:08;;;;;;;;;7.00;7.00;;;;;16.69;47.81;100344.88;5035644;28;45328;-75
2022/12/24 09:02:34;;;;;;;;;3.00;2.00;;;;;16.75;47.73;100340.47;5049065;28;45439;-76
2022/12/24 09:04:59;;;;;;;;;13.00;12.33;;;;;16.76;47.21;100324.63;5058632;28;45499;-75
2022/12/24 09:07:25;;;;;;;;;12.00;11.00;;;;;16.79;46.26;100308.81;5058650;28;45371;-73
2022/12/24 09:09:50;;;;;;;;;8.00;8.00;;;;;16.99;46.18;100332.63;5059570;28;45417;-77
2022/12/24 09:12:16;;;;;;;;;4.67;3.00;;;;;17.07;45.77;100341.41;5059207;28;45392;-71
2022/12/24 09:14:41;;;;;;;;;2.67;2.33;;;;;17.15;45.49;100349.34;5059206;28;45452;-79
2022/12/24 09:17:07;;;;;;;;;2.00;2.00;;;;;16.97;45.28;100307.09;5058418;28;45758;-82
2022/12/24 09:19:32;;;;;;;;;2.67;2.67;;;;;17.31;45.41;100347.56;5058787;28;45311;-79
2022/12/24 09:21:58;;;;;;;;;2.00;2.00;;;;;17.39;45.49;100343.16;5058907;28;45309;-78
2022/12/24 09:24:23;;;;;;;;;3.33;3.00;;;;;17.53;44.90;100351.06;5059503;28;45538;-78
2022/12/24 09:26:49;;;;;;;;;1.67;1.67;;;;;17.91;44.91;100330.75;5059061;28;46000;-78
2022/12/24 09:29:15;;;;;;;;;2.67;2.33;;;;;18.58;43.47;100334.81;5060606;28;45304;-67
2022/12/24 09:31:42;;;;;;;;;1.00;1.00;;;;;19.33;41.92;100347.50;5059308;28;45399;-80
2022/12/24 09:34:08;;;;;;;;;2.00;2.00;;;;;19.80;41.77;100326.75;5059044;28;45456;-68
2022/12/24 09:36:34;;;;;;;;;2.00;2.00;;;;;20.39;40.31;100345.44;5058747;28;45576;-78
2022/12/24 09:39:00;;;;;;;;;4.00;3.00;;;;;20.74;40.53;100349.41;5058210;28;45640;-68
2022/12/24 09:41:39;;;;;;;;;3.00;2.00;;;;;21.00;39.57;100351.66;5059098;28;45403;-79
2022/12/24 09:44:25;;;;;;;;;2.00;2.00;;;;;21.20;38.16;100351.34;5058466;28;45283;-79
2022/12/24 09:46:52;;;;;;;;;3.67;2.67;;;;;21.12;37.99;100324.03;5057036;28;45432;-78
2022/12/24 09:49:39;;;;;;;;;2.00;2.00;;;;;21.49;38.48;100360.59;5058310;28;45508;-77
2022/12/24 09:52:07;;;;;;;;;2.00;2.00;;;;;;;;5058474;28;45457;-78
2022/12/24 09:54:40;;;;;;;;;2.00;2.00;;;;;21.89;37.62;100354.56;5056265;28;45525;-72
2022/12/24 09:57:16;;;;;;;;;3.33;3.00;;;;;22.05;36.99;100353.34;5056787;28;46579;-72
2022/12/24 09:59:44;;;;;;;;;3.00;2.00;;;;;22.16;36.71;100364.66;5057263;28;45413;-73
2022/12/24 10:02:16;;;;;;;;;5.00;4.00;;;;;22.29;36.38;100356.44;5057539;28;45586;-75
2022/12/24 10:04:43;;;;;;;;;5.00;4.33;;;;;22.38;36.53;100358.88;5057705;28;45407;-78
2022/12/24 10:07:30;;;;;;;;;7.00;6.67;;;;;22.42;36.18;100360.56;5057583;28;46167;-78
2022/12/24 10:10:09;;;;;;;;;5.00;5.00;;;;;22.50;36.10;100353.31;5056293;28;45538;-78
2022/12/24 10:12:58;;;;;;;;;6.67;5.00;;;;;22.57;36.79;100354.03;5057123;28;45379;-77
2022/12/24 10:15:29;;;;;;;;;3.33;3.33;;;;;22.63;35.69;100352.09;5057892;28;45458;-73
2022/12/24 10:18:03;;;;;;;;;2.00;2.00;;;;;22.54;35.15;100330.13;5059032;28;45611;-74
2022/12/24 10:21:03;;;;;;;;;4.00;2.00;;;;;22.51;35.32;100340.88;5058495;28;45575;-75
2022/12/24 10:23:55;;;;;;;;;1.00;1.00;;;;;22.47;35.84;100350.69;5056191;28;45485;-69
2022/12/24 10:26:35;;;;;;;;;1.00;0.33;;;;;22.43;35.09;100349.03;5055193;28;45510;-77
2022/12/24 10:29:27;;;;;;;;;5.67;4.00;;;;;22.23;35.28;100344.97;5054268;28;45676;-78
2022/12/24 10:32:16;;;;;;;;;5.33;3.00;;;;;22.24;35.13;100343.22;5054089;28;45532;-78
2022/12/24 10:34:51;;;;;;;;;3.00;3.00;;;;;22.14;35.03;100325.66;5054914;28;45359;-73
2022/12/24 10:37:23;;;;;;;;;2.00;2.00;;;;;21.95;35.18;100296.78;5054056;28;45391;-80
2022/12/24 10:39:49;;;;;;;;;4.00;3.67;;;;;22.25;35.24;100339.66;5056107;28;45515;-81
2022/12/24 10:42:17;;;;;;;;;3.00;2.00;;;;;22.22;35.88;100316.63;5056152;28;45435;-68
2022/12/24 10:44:47;;;;;;;;;14.00;11.00;;;;;22.27;35.59;100326.31;5055568;28;45534;-69
2022/12/24 10:47:13;;;;;;;;;6.00;6.00;;;;;22.17;35.95;100291.03;5052859;28;45774;-69
2022/12/24 10:49:51;;;;;;;;;4.67;3.33;;;;;22.49;35.40;100329.38;5055784;28;45789;-70
2022/12/24 10:52:23;;;;;;;;;4.33;3.67;;;;;22.48;34.72;100344.44;5053217;28;45652;-69
2022/12/24 10:55:17;;;;;;;;;2.33;2.33;;;;;22.48;34.66;100330.28;5056165;28;45538;-68
2022/12/24 10:57:46;;;;;;;;;5.33;5.33;;;;;22.34;34.42;100325.25;5046517;28;45384;-68
2022/12/24 11:00:19;;;;;;;;;3.00;2.67;;;;;22.26;34.09;100330.75;5055116;28;45606;-78
2022/12/24 11:02:47;;;;;;;;;2.00;1.67;;;;;22.12;35.62;100309.72;5056352;28;45279;-77
2022/12/24 11:05:34;;;;;;;;;1.67;1.67;;;;;22.13;34.78;100322.13;5053331;28;45624;-78
2022/12/24 11:08:01;;;;;;;;;3.33;2.00;;;;;22.11;35.41;100317.75;5050931;28;45386;-79
2022/12/24 11:10:27;;;;;;;;;2.00;2.00;;;;;22.18;35.24;100306.97;5056136;28;45559;-80
2022/12/24 11:12:52;;;;;;;;;2.00;2.00;;;;;22.13;35.49;100310.63;5053156;28;45387;-77
2022/12/24 11:15:22;;;;;;;;;3.33;3.00;;;;;21.88;35.31;100279.19;5055853;28;45798;-75
2022/12/24 11:18:04;;;;;;;;;1.00;1.00;;;;;21.95;35.92;100312.75;5055386;28;45359;-81
2022/12/24 11:20:34;;;;;;;;;2.00;2.00;;;;;21.73;35.45;100269.78;5043092;28;45553;-73
2022/12/24 11:23:01;;;;;;;;;1.00;1.00;;;;;21.88;35.46;100300.47;5055806;28;45368;-70
2022/12/24 11:25:30;;;;;;;;;1.00;1.00;;;;;21.87;35.73;100304.06;5053217;28;45425;-77
2022/12/24 11:28:09;;;;;;;;;2.00;2.00;;;;;21.93;35.93;100309.25;5035889;28;45795;-79
2022/12/24 11:30:35;;;;;;;;;2.00;2.00;;;;;21.92;35.42;100303.94;5053425;28;45557;-75
2022/12/24 11:33:01;;;;;;;;;1.00;1.00;;;;;21.99;35.34;100311.78;5055923;28;45463;-79
2022/12/24 11:35:28;;;;;;;;;2.00;1.33;;;;;21.95;35.94;100298.59;5055032;28;45438;-82
2022/12/24 11:38:00;;;;;;;;;2.00;2.00;;;;;21.82;35.96;100304.13;5055760;28;45497;-69
2022/12/24 11:40:33;;;;;;;;;1.67;1.67;;;;;21.71;35.67;100298.19;5055497;28;45943;-80
2022/12/24 11:43:01;;;;;;;;;2.33;1.67;;;;;21.77;36.06;100306.03;5056047;28;45307;-80